Terminal Aerodrome Forecast
Issued by NWS Cleveland, OH

Home | Current Version | Previous Version | Graphics & Text | Print | Product List | Glossary Off
Versions: 1 2 3 4 5 6 7 8 9 10 11 12 13 14 15 16 17

137
FTUS41 KCLE 181045 AAA
TAFYNG
TAF AMD
KYNG 181045Z 1811/1906 21006KT P6SM SCT009 BKN100
     FM181400 21010KT P6SM BKN015
     FM181530 24010KT P6SM BKN025
     FM181730 25012G20KT P6SM BKN040
     FM181900 26012G22KT P6SM BKN050
     FM182300 26010KT P6SM SCT120=

USA.gov is the U.S. government's official web portal to all federal, state and local government web resources and services.